sensor_id;sensor_type;location;lat;lon;timestamp;P1;durP1;ratioP1;P2;durP2;ratioP2
78772;SDS011;68111;44.728;11.290;2023-07-31T00:00:51;5.30;;;2.00;;
78772;SDS011;68111;44.728;11.290;2023-07-31T00:03:18;5.75;;;1.98;;
78772;SDS011;68111;44.728;11.290;2023-07-31T00:05:44;5.80;;;2.10;;
78772;SDS011;68111;44.728;11.290;2023-07-31T00:08:11;6.88;;;2.00;;
78772;SDS011;68111;44.728;11.290;2023-07-31T00:10:38;5.20;;;1.90;;
78772;SDS011;68111;44.728;11.290;2023-07-31T00:13:04;6.28;;;1.92;;
78772;SDS011;68111;44.728;11.290;2023-07-31T00:15:31;4.03;;;2.08;;
78772;SDS011;68111;44.728;11.290;2023-07-31T00:17:58;5.45;;;1.90;;
78772;SDS011;68111;44.728;11.290;2023-07-31T00:20:25;4.57;;;1.92;;
78772;SDS011;68111;44.728;11.290;2023-07-31T00:22:51;4.93;;;1.90;;
78772;SDS011;68111;44.728;11.290;2023-07-31T00:25:18;6.90;;;2.20;;
78772;SDS011;68111;44.728;11.290;2023-07-31T00:27:45;4.03;;;1.90;;
78772;SDS011;68111;44.728;11.290;2023-07-31T00:30:12;5.93;;;1.92;;
78772;SDS011;68111;44.728;11.290;2023-07-31T00:32:39;5.38;;;1.80;;
78772;SDS011;68111;44.728;11.290;2023-07-31T00:35:06;7.03;;;2.30;;
78772;SDS011;68111;44.728;11.290;2023-07-31T00:37:32;5.28;;;1.90;;
78772;SDS011;68111;44.728;11.290;2023-07-31T00:39:59;6.28;;;2.00;;
78772;SDS011;68111;44.728;11.290;2023-07-31T00:42:26;4.85;;;1.90;;
78772;SDS011;68111;44.728;11.290;2023-07-31T00:44:53;5.20;;;1.77;;
78772;SDS011;68111;44.728;11.290;2023-07-31T00:47:20;3.40;;;1.70;;
78772;SDS011;68111;44.728;11.290;2023-07-31T00:49:47;4.93;;;1.95;;
78772;SDS011;68111;44.728;11.290;2023-07-31T00:52:14;6.03;;;1.95;;
78772;SDS011;68111;44.728;11.290;2023-07-31T00:54:41;4.97;;;1.77;;
78772;SDS011;68111;44.728;11.290;2023-07-31T00:57:08;3.78;;;1.80;;
78772;SDS011;68111;44.728;11.290;2023-07-31T00:59:35;4.18;;;1.90;;
78772;SDS011;68111;44.728;11.290;2023-07-31T01:02:02;6.85;;;2.10;;
78772;SDS011;68111;44.728;11.290;2023-07-31T01:04:29;5.68;;;1.80;;
78772;SDS011;68111;44.728;11.290;2023-07-31T01:09:34;3.85;;;1.80;;
78772;SDS011;68111;44.728;11.290;2023-07-31T01:12:03;5.35;;;2.08;;
78772;SDS011;68111;44.728;11.290;2023-07-31T01:14:33;4.10;;;1.70;;
78772;SDS011;68111;44.728;11.290;2023-07-31T01:17:00;7.15;;;2.00;;
78772;SDS011;68111;44.728;11.290;2023-07-31T01:19:27;3.85;;;1.70;;
78772;SDS011;68111;44.728;11.290;2023-07-31T01:25:07;4.45;;;1.80;;
78772;SDS011;68111;44.728;11.290;2023-07-31T01:28:02;3.38;;;1.67;;
78772;SDS011;68111;44.728;11.290;2023-07-31T01:30:32;6.07;;;1.88;;
78772;SDS011;68111;44.728;11.290;2023-07-31T01:33:02;4.20;;;2.00;;
78772;SDS011;68111;44.728;11.290;2023-07-31T01:35:36;4.05;;;1.75;;
78772;SDS011;68111;44.728;11.290;2023-07-31T01:38:04;4.60;;;1.83;;
78772;SDS011;68111;44.728;11.290;2023-07-31T01:40:31;5.30;;;1.88;;
78772;SDS011;68111;44.728;11.290;2023-07-31T01:42:58;2.85;;;1.73;;
78772;SDS011;68111;44.728;11.290;2023-07-31T01:45:25;3.45;;;1.95;;
78772;SDS011;68111;44.728;11.290;2023-07-31T01:47:51;5.43;;;2.25;;
78772;SDS011;68111;44.728;11.290;2023-07-31T01:50:18;5.35;;;2.10;;
78772;SDS011;68111;44.728;11.290;2023-07-31T01:52:45;4.97;;;2.15;;
78772;SDS011;68111;44.728;11.290;2023-07-31T01:55:12;6.00;;;2.08;;
78772;SDS011;68111;44.728;11.290;2023-07-31T01:57:38;3.65;;;2.03;;
78772;SDS011;68111;44.728;11.290;2023-07-31T02:00:05;5.13;;;1.77;;
78772;SDS011;68111;44.728;11.290;2023-07-31T02:02:37;5.95;;;2.15;;
78772;SDS011;68111;44.728;11.290;2023-07-31T02:05:22;3.85;;;2.00;;
78772;SDS011;68111;44.728;11.290;2023-07-31T02:07:49;4.00;;;2.00;;
78772;SDS011;68111;44.728;11.290;2023-07-31T02:10:16;4.88;;;1.98;;
78772;SDS011;68111;44.728;11.290;2023-07-31T02:12:43;4.00;;;2.10;;
78772;SDS011;68111;44.728;11.290;2023-07-31T02:15:09;4.25;;;2.08;;
78772;SDS011;68111;44.728;11.290;2023-07-31T02:17:36;4.43;;;2.08;;
78772;SDS011;68111;44.728;11.290;2023-07-31T02:20:03;4.88;;;2.10;;
78772;SDS011;68111;44.728;11.290;2023-07-31T02:22:30;4.35;;;2.00;;
78772;SDS011;68111;44.728;11.290;2023-07-31T02:24:57;5.80;;;2.00;;
78772;SDS011;68111;44.728;11.290;2023-07-31T02:27:24;3.53;;;2.00;;
78772;SDS011;68111;44.728;11.290;2023-07-31T02:29:54;5.82;;;2.13;;
78772;SDS011;68111;44.728;11.290;2023-07-31T02:32:21;4.20;;;2.00;;
78772;SDS011;68111;44.728;11.290;2023-07-31T02:34:48;3.95;;;1.92;;
78772;SDS011;68111;44.728;11.290;2023-07-31T02:37:16;4.10;;;1.85;;
78772;SDS011;68111;44.728;11.290;2023-07-31T02:39:42;5.85;;;2.05;;
78772;SDS011;68111;44.728;11.290;2023-07-31T02:42:09;3.13;;;1.80;;
78772;SDS011;68111;44.728;11.290;2023-07-31T02:44:36;6.07;;;2.00;;
78772;SDS011;68111;44.728;11.290;2023-07-31T02:47:03;5.60;;;1.85;;
78772;SDS011;68111;44.728;11.290;2023-07-31T02:49:29;4.00;;;2.10;;
78772;SDS011;68111;44.728;11.290;2023-07-31T02:51:56;4.05;;;2.10;;
78772;SDS011;68111;44.728;11.290;2023-07-31T02:54:23;4.50;;;2.00;;
78772;SDS011;68111;44.728;11.290;2023-07-31T02:56:49;3.50;;;1.80;;
78772;SDS011;68111;44.728;11.290;2023-07-31T02:59:16;3.35;;;1.98;;
78772;SDS011;68111;44.728;11.290;2023-07-31T03:01:44;3.33;;;1.85;;
78772;SDS011;68111;44.728;11.290;2023-07-31T03:04:11;2.75;;;1.60;;
78772;SDS011;68111;44.728;11.290;2023-07-31T03:06:37;3.70;;;1.80;;
78772;SDS011;68111;44.728;11.290;2023-07-31T03:09:05;2.13;;;1.67;;
78772;SDS011;68111;44.728;11.290;2023-07-31T03:11:31;4.25;;;1.95;;
78772;SDS011;68111;44.728;11.290;2023-07-31T03:13:58;3.85;;;1.80;;
78772;SDS011;68111;44.728;11.290;2023-07-31T03:16:25;3.65;;;2.00;;
78772;SDS011;68111;44.728;11.290;2023-07-31T03:18:51;3.80;;;1.90;;
78772;SDS011;68111;44.728;11.290;2023-07-31T03:21:18;4.22;;;2.10;;
78772;SDS011;68111;44.728;11.290;2023-07-31T03:23:45;3.47;;;1.98;;
78772;SDS011;68111;44.728;11.290;2023-07-31T03:26:12;3.55;;;2.10;;
78772;SDS011;68111;44.728;11.290;2023-07-31T03:28:39;4.40;;;2.20;;
78772;SDS011;68111;44.728;11.290;2023-07-31T03:31:05;3.08;;;2.30;;
78772;SDS011;68111;44.728;11.290;2023-07-31T03:33:35;2.88;;;2.00;;
78772;SDS011;68111;44.728;11.290;2023-07-31T03:36:02;4.32;;;2.30;;
78772;SDS011;68111;44.728;11.290;2023-07-31T03:38:29;4.32;;;2.20;;
78772;SDS011;68111;44.728;11.290;2023-07-31T03:40:56;4.90;;;2.20;;
78772;SDS011;68111;44.728;11.290;2023-07-31T03:43:22;4.82;;;2.55;;
78772;SDS011;68111;44.728;11.290;2023-07-31T03:45:49;4.20;;;1.90;;
78772;SDS011;68111;44.728;11.290;2023-07-31T03:48:16;4.85;;;2.22;;
78772;SDS011;68111;44.728;11.290;2023-07-31T03:50:43;4.28;;;2.30;;
78772;SDS011;68111;44.728;11.290;2023-07-31T03:53:10;4.15;;;2.15;;
78772;SDS011;68111;44.728;11.290;2023-07-31T03:55:36;4.72;;;2.05;;
78772;SDS011;68111;44.728;11.290;2023-07-31T03:58:03;5.53;;;2.50;;
78772;SDS011;68111;44.728;11.290;2023-07-31T04:00:30;4.55;;;2.80;;
78772;SDS011;68111;44.728;11.290;2023-07-31T04:02:57;4.18;;;2.53;;
78772;SDS011;68111;44.728;11.290;2023-07-31T04:05:23;5.43;;;2.60;;
78772;SDS011;68111;44.728;11.290;2023-07-31T04:07:50;4.88;;;2.67;;
78772;SDS011;68111;44.728;11.290;2023-07-31T04:10:17;3.67;;;2.58;;
78772;SDS011;68111;44.728;11.290;2023-07-31T04:12:44;4.60;;;2.67;;
78772;SDS011;68111;44.728;11.290;2023-07-31T04:15:10;4.07;;;2.45;;
78772;SDS011;68111;44.728;11.290;2023-07-31T04:17:38;6.53;;;2.42;;
78772;SDS011;68111;44.728;11.290;2023-07-31T04:20:05;3.95;;;2.40;;
78772;SDS011;68111;44.728;11.290;2023-07-31T04:22:33;5.80;;;2.35;;
78772;SDS011;68111;44.728;11.290;2023-07-31T04:24:59;5.65;;;2.65;;
78772;SDS011;68111;44.728;11.290;2023-07-31T04:27:26;4.00;;;2.35;;
78772;SDS011;68111;44.728;11.290;2023-07-31T04:29:53;5.10;;;2.75;;
78772;SDS011;68111;44.728;11.290;2023-07-31T04:32:19;5.10;;;2.58;;
78772;SDS011;68111;44.728;11.290;2023-07-31T04:34:47;6.75;;;2.95;;
78772;SDS011;68111;44.728;11.290;2023-07-31T04:37:14;5.70;;;2.17;;
78772;SDS011;68111;44.728;11.290;2023-07-31T04:39:40;4.82;;;2.08;;
78772;SDS011;68111;44.728;11.290;2023-07-31T04:42:07;3.80;;;2.30;;
78772;SDS011;68111;44.728;11.290;2023-07-31T04:44:35;5.70;;;2.30;;
78772;SDS011;68111;44.728;11.290;2023-07-31T04:47:01;3.58;;;2.40;;
78772;SDS011;68111;44.728;11.290;2023-07-31T04:49:28;4.93;;;1.95;;
78772;SDS011;68111;44.728;11.290;2023-07-31T04:51:55;5.25;;;2.20;;
78772;SDS011;68111;44.728;11.290;2023-07-31T04:54:22;4.00;;;2.33;;
78772;SDS011;68111;44.728;11.290;2023-07-31T04:56:52;4.65;;;2.30;;
78772;SDS011;68111;44.728;11.290;2023-07-31T04:59:19;5.70;;;2.45;;
78772;SDS011;68111;44.728;11.290;2023-07-31T05:01:46;3.95;;;2.30;;
78772;SDS011;68111;44.728;11.290;2023-07-31T05:04:13;9.27;;;2.45;;
78772;SDS011;68111;44.728;11.290;2023-07-31T05:06:40;5.82;;;2.00;;
78772;SDS011;68111;44.728;11.290;2023-07-31T05:09:08;4.25;;;2.60;;
78772;SDS011;68111;44.728;11.290;2023-07-31T05:11:35;4.85;;;2.33;;
78772;SDS011;68111;44.728;11.290;2023-07-31T05:14:02;2.53;;;1.98;;
78772;SDS011;68111;44.728;11.290;2023-07-31T05:16:29;5.13;;;2.30;;
78772;SDS011;68111;44.728;11.290;2023-07-31T05:18:56;7.63;;;2.20;;
78772;SDS011;68111;44.728;11.290;2023-07-31T05:21:23;4.43;;;2.42;;
78772;SDS011;68111;44.728;11.290;2023-07-31T05:23:50;3.90;;;2.30;;
78772;SDS011;68111;44.728;11.290;2023-07-31T05:26:17;5.50;;;2.17;;
78772;SDS011;68111;44.728;11.290;2023-07-31T05:28:44;5.90;;;2.08;;
78772;SDS011;68111;44.728;11.290;2023-07-31T05:31:11;4.15;;;2.40;;
78772;SDS011;68111;44.728;11.290;2023-07-31T05:33:38;6.15;;;2.60;;
78772;SDS011;68111;44.728;11.290;2023-07-31T05:36:05;5.70;;;2.35;;
78772;SDS011;68111;44.728;11.290;2023-07-31T05:38:31;4.80;;;2.15;;
78772;SDS011;68111;44.728;11.290;2023-07-31T05:40:58;5.60;;;2.10;;
78772;SDS011;68111;44.728;11.290;2023-07-31T05:43:25;3.75;;;1.98;;
78772;SDS011;68111;44.728;11.290;2023-07-31T05:45:51;3.15;;;2.20;;
78772;SDS011;68111;44.728;11.290;2023-07-31T05:48:18;4.85;;;2.13;;
78772;SDS011;68111;44.728;11.290;2023-07-31T05:50:45;3.33;;;2.03;;
78772;SDS011;68111;44.728;11.290;2023-07-31T05:53:12;4.15;;;1.98;;
78772;SDS011;68111;44.728;11.290;2023-07-31T05:55:38;4.35;;;2.28;;
78772;SDS011;68111;44.728;11.290;2023-07-31T05:58:05;5.03;;;2.55;;
78772;SDS011;68111;44.728;11.290;2023-07-31T06:00:32;5.05;;;2.08;;
78772;SDS011;68111;44.728;11.290;2023-07-31T06:02:59;5.07;;;2.97;;
78772;SDS011;68111;44.728;11.290;2023-07-31T06:05:25;5.97;;;2.95;;
78772;SDS011;68111;44.728;11.290;2023-07-31T06:07:54;4.70;;;2.50;;
78772;SDS011;68111;44.728;11.290;2023-07-31T06:10:21;5.72;;;2.80;;
78772;SDS011;68111;44.728;11.290;2023-07-31T06:12:48;4.28;;;2.80;;
78772;SDS011;68111;44.728;11.290;2023-07-31T06:15:14;7.93;;;2.90;;
78772;SDS011;68111;44.728;11.290;2023-07-31T06:17:41;7.75;;;2.90;;
78772;SDS011;68111;44.728;11.290;2023-07-31T06:20:09;5.50;;;2.58;;
78772;SDS011;68111;44.728;11.290;2023-07-31T06:22:36;4.68;;;2.40;;
78772;SDS011;68111;44.728;11.290;2023-07-31T06:25:03;5.75;;;2.65;;
78772;SDS011;68111;44.728;11.290;2023-07-31T06:27:30;5.18;;;2.40;;
78772;SDS011;68111;44.728;11.290;2023-07-31T06:29:56;3.55;;;2.10;;
78772;SDS011;68111;44.728;11.290;2023-07-31T06:32:23;5.85;;;2.30;;
78772;SDS011;68111;44.728;11.290;2023-07-31T06:34:50;6.57;;;2.40;;
78772;SDS011;68111;44.728;11.290;2023-07-31T06:37:17;4.10;;;2.20;;
78772;SDS011;68111;44.728;11.290;2023-07-31T06:39:44;6.53;;;3.13;;
78772;SDS011;68111;44.728;11.290;2023-07-31T06:42:10;6.88;;;2.90;;
78772;SDS011;68111;44.728;11.290;2023-07-31T06:44:37;8.60;;;2.65;;
78772;SDS011;68111;44.728;11.290;2023-07-31T06:47:04;6.78;;;2.60;;
78772;SDS011;68111;44.728;11.290;2023-07-31T06:49:32;7.32;;;2.20;;
78772;SDS011;68111;44.728;11.290;2023-07-31T06:51:59;4.65;;;2.60;;
78772;SDS011;68111;44.728;11.290;2023-07-31T06:54:25;4.75;;;2.50;;
78772;SDS011;68111;44.728;11.290;2023-07-31T06:56:52;5.68;;;2.45;;
78772;SDS011;68111;44.728;11.290;2023-07-31T06:59:19;4.97;;;2.17;;
78772;SDS011;68111;44.728;11.290;2023-07-31T07:01:45;4.75;;;2.22;;
78772;SDS011;68111;44.728;11.290;2023-07-31T07:04:13;5.22;;;2.10;;
78772;SDS011;68111;44.728;11.290;2023-07-31T07:06:40;4.63;;;2.40;;
78772;SDS011;68111;44.728;11.290;2023-07-31T07:09:07;5.38;;;2.15;;
78772;SDS011;68111;44.728;11.290;2023-07-31T07:11:34;5.35;;;1.88;;
78772;SDS011;68111;44.728;11.290;2023-07-31T07:14:01;4.88;;;2.10;;
78772;SDS011;68111;44.728;11.290;2023-07-31T07:16:28;5.15;;;2.10;;
78772;SDS011;68111;44.728;11.290;2023-07-31T07:18:55;4.57;;;2.47;;
78772;SDS011;68111;44.728;11.290;2023-07-31T07:21:30;4.10;;;2.17;;
78772;SDS011;68111;44.728;11.290;2023-07-31T07:23:57;4.32;;;2.40;;
78772;SDS011;68111;44.728;11.290;2023-07-31T07:26:24;7.38;;;2.15;;
78772;SDS011;68111;44.728;11.290;2023-07-31T07:28:50;3.85;;;2.30;;
78772;SDS011;68111;44.728;11.290;2023-07-31T07:31:17;2.78;;;1.90;;
78772;SDS011;68111;44.728;11.290;2023-07-31T07:33:44;5.00;;;2.15;;
78772;SDS011;68111;44.728;11.290;2023-07-31T07:36:11;1.75;;;1.63;;
78772;SDS011;68111;44.728;11.290;2023-07-31T07:38:39;2.70;;;1.88;;
78772;SDS011;68111;44.728;11.290;2023-07-31T07:41:07;2.65;;;1.83;;
78772;SDS011;68111;44.728;11.290;2023-07-31T07:43:34;3.63;;;1.77;;
78772;SDS011;68111;44.728;11.290;2023-07-31T07:46:00;3.58;;;2.00;;
78772;SDS011;68111;44.728;11.290;2023-07-31T07:48:27;6.47;;;1.70;;
78772;SDS011;68111;44.728;11.290;2023-07-31T07:50:54;4.55;;;2.05;;
78772;SDS011;68111;44.728;11.290;2023-07-31T07:53:21;3.75;;;1.90;;
78772;SDS011;68111;44.728;11.290;2023-07-31T07:55:48;3.17;;;1.70;;
78772;SDS011;68111;44.728;11.290;2023-07-31T07:58:14;3.22;;;1.60;;
78772;SDS011;68111;44.728;11.290;2023-07-31T08:00:41;2.60;;;1.88;;
78772;SDS011;68111;44.728;11.290;2023-07-31T08:03:08;5.85;;;1.95;;
78772;SDS011;68111;44.728;11.290;2023-07-31T08:05:36;5.93;;;2.22;;
78772;SDS011;68111;44.728;11.290;2023-07-31T08:08:03;9.10;;;3.25;;
78772;SDS011;68111;44.728;11.290;2023-07-31T08:10:30;4.88;;;2.30;;
78772;SDS011;68111;44.728;11.290;2023-07-31T08:12:56;5.90;;;2.63;;
78772;SDS011;68111;44.728;11.290;2023-07-31T08:15:23;5.28;;;2.13;;
78772;SDS011;68111;44.728;11.290;2023-07-31T08:17:50;6.93;;;2.30;;
78772;SDS011;68111;44.728;11.290;2023-07-31T08:20:17;6.07;;;2.40;;
78772;SDS011;68111;44.728;11.290;2023-07-31T08:22:44;4.95;;;2.00;;
78772;SDS011;68111;44.728;11.290;2023-07-31T08:25:10;3.40;;;1.95;;
78772;SDS011;68111;44.728;11.290;2023-07-31T08:27:37;4.97;;;1.98;;
78772;SDS011;68111;44.728;11.290;2023-07-31T08:30:04;4.13;;;1.90;;
78772;SDS011;68111;44.728;11.290;2023-07-31T08:32:31;4.70;;;2.10;;
78772;SDS011;68111;44.728;11.290;2023-07-31T08:34:58;6.35;;;2.25;;
78772;SDS011;68111;44.728;11.290;2023-07-31T08:37:24;6.00;;;2.10;;
78772;SDS011;68111;44.728;11.290;2023-07-31T08:39:51;6.13;;;2.03;;
78772;SDS011;68111;44.728;11.290;2023-07-31T08:42:18;4.93;;;2.20;;
78772;SDS011;68111;44.728;11.290;2023-07-31T08:44:45;2.70;;;1.80;;
78772;SDS011;68111;44.728;11.290;2023-07-31T08:47:13;3.03;;;1.75;;
78772;SDS011;68111;44.728;11.290;2023-07-31T08:49:41;4.32;;;1.90;;
78772;SDS011;68111;44.728;11.290;2023-07-31T08:52:10;3.55;;;1.70;;
78772;SDS011;68111;44.728;11.290;2023-07-31T08:54:36;5.60;;;1.80;;
78772;SDS011;68111;44.728;11.290;2023-07-31T08:57:03;5.68;;;2.38;;
78772;SDS011;68111;44.728;11.290;2023-07-31T08:59:31;5.82;;;2.42;;
78772;SDS011;68111;44.728;11.290;2023-07-31T09:02:03;3.50;;;1.90;;
78772;SDS011;68111;44.728;11.290;2023-07-31T09:04:34;3.67;;;1.95;;
78772;SDS011;68111;44.728;11.290;2023-07-31T09:07:02;5.20;;;2.00;;
78772;SDS011;68111;44.728;11.290;2023-07-31T09:09:31;8.68;;;3.25;;
78772;SDS011;68111;44.728;11.290;2023-07-31T09:11:58;6.55;;;2.40;;
78772;SDS011;68111;44.728;11.290;2023-07-31T09:14:25;4.30;;;2.20;;
78772;SDS011;68111;44.728;11.290;2023-07-31T09:16:53;6.70;;;2.35;;
78772;SDS011;68111;44.728;11.290;2023-07-31T09:19:34;6.40;;;2.03;;
78772;SDS011;68111;44.728;11.290;2023-07-31T09:22:04;4.85;;;2.05;;
78772;SDS011;68111;44.728;11.290;2023-07-31T09:24:32;5.22;;;2.00;;
78772;SDS011;68111;44.728;11.290;2023-07-31T09:27:00;6.00;;;1.90;;
78772;SDS011;68111;44.728;11.290;2023-07-31T09:29:28;7.95;;;2.15;;
78772;SDS011;68111;44.728;11.290;2023-07-31T09:31:56;4.25;;;2.00;;
78772;SDS011;68111;44.728;11.290;2023-07-31T09:34:29;5.30;;;2.13;;
78772;SDS011;68111;44.728;11.290;2023-07-31T09:37:03;2.97;;;1.80;;
78772;SDS011;68111;44.728;11.290;2023-07-31T09:39:30;4.60;;;2.00;;
78772;SDS011;68111;44.728;11.290;2023-07-31T09:41:57;3.63;;;1.75;;
78772;SDS011;68111;44.728;11.290;2023-07-31T09:44:37;4.88;;;1.60;;
78772;SDS011;68111;44.728;11.290;2023-07-31T09:47:06;1.90;;;1.70;;
78772;SDS011;68111;44.728;11.290;2023-07-31T09:49:33;4.60;;;1.85;;
78772;SDS011;68111;44.728;11.290;2023-07-31T09:52:00;2.47;;;1.70;;
78772;SDS011;68111;44.728;11.290;2023-07-31T09:54:26;4.30;;;1.55;;
78772;SDS011;68111;44.728;11.290;2023-07-31T09:57:11;2.50;;;1.75;;
78772;SDS011;68111;44.728;11.290;2023-07-31T09:59:39;2.50;;;1.55;;
78772;SDS011;68111;44.728;11.290;2023-07-31T10:02:07;2.15;;;1.50;;
78772;SDS011;68111;44.728;11.290;2023-07-31T10:04:41;4.18;;;1.60;;
78772;SDS011;68111;44.728;11.290;2023-07-31T10:07:12;2.67;;;1.50;;
78772;SDS011;68111;44.728;11.290;2023-07-31T10:09:40;3.78;;;1.52;;
78772;SDS011;68111;44.728;11.290;2023-07-31T10:12:08;1.63;;;1.33;;
78772;SDS011;68111;44.728;11.290;2023-07-31T10:14:38;3.53;;;1.35;;
78772;SDS011;68111;44.728;11.290;2023-07-31T10:17:07;3.80;;;1.60;;
78772;SDS011;68111;44.728;11.290;2023-07-31T10:19:35;4.75;;;1.70;;
78772;SDS011;68111;44.728;11.290;2023-07-31T10:22:03;2.42;;;1.70;;
78772;SDS011;68111;44.728;11.290;2023-07-31T10:24:32;3.75;;;1.60;;
78772;SDS011;68111;44.728;11.290;2023-07-31T10:26:59;5.20;;;1.50;;
78772;SDS011;68111;44.728;11.290;2023-07-31T10:29:27;3.25;;;1.83;;
78772;SDS011;68111;44.728;11.290;2023-07-31T10:31:57;3.22;;;1.63;;
78772;SDS011;68111;44.728;11.290;2023-07-31T10:34:25;2.80;;;1.83;;
78772;SDS011;68111;44.728;11.290;2023-07-31T10:39:57;3.97;;;1.90;;
78772;SDS011;68111;44.728;11.290;2023-07-31T10:48:02;3.45;;;1.75;;
78772;SDS011;68111;44.728;11.290;2023-07-31T10:50:31;3.38;;;1.80;;
78772;SDS011;68111;44.728;11.290;2023-07-31T10:52:59;3.20;;;1.77;;
78772;SDS011;68111;44.728;11.290;2023-07-31T10:55:33;3.67;;;1.80;;
78772;SDS011;68111;44.728;11.290;2023-07-31T11:00:37;3.63;;;1.80;;
78772;SDS011;68111;44.728;11.290;2023-07-31T11:03:06;4.93;;;1.73;;
78772;SDS011;68111;44.728;11.290;2023-07-31T11:05:43;4.35;;;1.73;;
78772;SDS011;68111;44.728;11.290;2023-07-31T11:10:42;6.97;;;2.00;;
78772;SDS011;68111;44.728;11.290;2023-07-31T11:13:10;3.85;;;2.00;;
78772;SDS011;68111;44.728;11.290;2023-07-31T11:15:37;3.65;;;1.90;;
78772;SDS011;68111;44.728;11.290;2023-07-31T11:18:04;3.38;;;2.15;;
78772;SDS011;68111;44.728;11.290;2023-07-31T11:20:35;4.07;;;2.10;;
78772;SDS011;68111;44.728;11.290;2023-07-31T11:23:06;5.70;;;2.08;;
78772;SDS011;68111;44.728;11.290;2023-07-31T11:25:35;6.63;;;2.00;;
78772;SDS011;68111;44.728;11.290;2023-07-31T11:28:04;7.78;;;2.20;;
78772;SDS011;68111;44.728;11.290;2023-07-31T11:30:32;3.75;;;1.70;;
78772;SDS011;68111;44.728;11.290;2023-07-31T11:33:04;4.60;;;2.00;;
78772;SDS011;68111;44.728;11.290;2023-07-31T11:35:32;3.13;;;1.98;;
78772;SDS011;68111;44.728;11.290;2023-07-31T11:37:59;3.42;;;1.77;;
78772;SDS011;68111;44.728;11.290;2023-07-31T11:40:27;5.25;;;2.25;;
78772;SDS011;68111;44.728;11.290;2023-07-31T11:42:58;2.42;;;1.75;;
78772;SDS011;68111;44.728;11.290;2023-07-31T11:45:31;3.17;;;1.95;;
78772;SDS011;68111;44.728;11.290;2023-07-31T11:47:59;3.72;;;2.08;;
78772;SDS011;68111;44.728;11.290;2023-07-31T11:50:27;2.75;;;1.95;;
78772;SDS011;68111;44.728;11.290;2023-07-31T11:52:55;4.43;;;2.10;;
78772;SDS011;68111;44.728;11.290;2023-07-31T11:55:25;4.82;;;2.00;;
78772;SDS011;68111;44.728;11.290;2023-07-31T11:57:55;3.00;;;2.00;;
78772;SDS011;68111;44.728;11.290;2023-07-31T12:00:23;3.53;;;1.90;;
78772;SDS011;68111;44.728;11.290;2023-07-31T12:02:51;4.82;;;2.08;;
78772;SDS011;68111;44.728;11.290;2023-07-31T12:05:18;2.95;;;2.10;;
78772;SDS011;68111;44.728;11.290;2023-07-31T12:07:46;2.58;;;2.00;;
78772;SDS011;68111;44.728;11.290;2023-07-31T12:10:31;3.28;;;1.92;;
78772;SDS011;68111;44.728;11.290;2023-07-31T12:13:00;3.47;;;2.20;;
78772;SDS011;68111;44.728;11.290;2023-07-31T12:15:34;2.63;;;2.17;;
78772;SDS011;68111;44.728;11.290;2023-07-31T12:18:05;3.13;;;2.03;;
78772;SDS011;68111;44.728;11.290;2023-07-31T12:20:33;2.95;;;2.05;;
78772;SDS011;68111;44.728;11.290;2023-07-31T12:23:01;3.95;;;1.80;;
78772;SDS011;68111;44.728;11.290;2023-07-31T12:25:28;5.00;;;2.15;;
78772;SDS011;68111;44.728;11.290;2023-07-31T12:27:56;4.03;;;2.33;;
78772;SDS011;68111;44.728;11.290;2023-07-31T12:30:27;5.03;;;2.38;;
78772;SDS011;68111;44.728;11.290;2023-07-31T12:32:55;5.47;;;2.38;;
78772;SDS011;68111;44.728;11.290;2023-07-31T12:35:21;3.90;;;2.38;;
78772;SDS011;68111;44.728;11.290;2023-07-31T12:37:48;5.28;;;2.47;;
78772;SDS011;68111;44.728;11.290;2023-07-31T12:40:15;4.82;;;2.20;;
78772;SDS011;68111;44.728;11.290;2023-07-31T12:42:49;3.78;;;2.38;;
78772;SDS011;68111;44.728;11.290;2023-07-31T12:45:15;3.38;;;2.20;;
78772;SDS011;68111;44.728;11.290;2023-07-31T12:47:42;3.70;;;2.40;;
78772;SDS011;68111;44.728;11.290;2023-07-31T12:50:09;4.20;;;2.20;;
78772;SDS011;68111;44.728;11.290;2023-07-31T12:52:36;2.78;;;2.03;;
78772;SDS011;68111;44.728;11.290;2023-07-31T12:55:02;4.57;;;2.15;;
78772;SDS011;68111;44.728;11.290;2023-07-31T12:57:30;3.80;;;2.30;;
78772;SDS011;68111;44.728;11.290;2023-07-31T12:59:57;5.07;;;2.47;;
78772;SDS011;68111;44.728;11.290;2023-07-31T13:02:24;4.22;;;2.60;;
78772;SDS011;68111;44.728;11.290;2023-07-31T13:04:52;8.25;;;2.67;;
78772;SDS011;68111;44.728;11.290;2023-07-31T13:07:20;5.50;;;2.42;;
78772;SDS011;68111;44.728;11.290;2023-07-31T13:09:47;3.70;;;2.30;;
78772;SDS011;68111;44.728;11.290;2023-07-31T13:12:15;2.88;;;2.20;;
78772;SDS011;68111;44.728;11.290;2023-07-31T13:14:41;3.75;;;2.42;;
78772;SDS011;68111;44.728;11.290;2023-07-31T13:17:08;4.10;;;2.33;;
78772;SDS011;68111;44.728;11.290;2023-07-31T13:19:35;5.35;;;2.60;;
78772;SDS011;68111;44.728;11.290;2023-07-31T13:22:02;4.28;;;2.28;;
78772;SDS011;68111;44.728;11.290;2023-07-31T13:24:28;3.42;;;2.38;;
78772;SDS011;68111;44.728;11.290;2023-07-31T13:26:56;4.07;;;2.47;;
78772;SDS011;68111;44.728;11.290;2023-07-31T13:29:23;3.60;;;2.30;;
78772;SDS011;68111;44.728;11.290;2023-07-31T13:31:51;4.57;;;2.42;;
78772;SDS011;68111;44.728;11.290;2023-07-31T13:34:19;3.30;;;2.28;;
78772;SDS011;68111;44.728;11.290;2023-07-31T13:36:45;4.45;;;2.42;;
78772;SDS011;68111;44.728;11.290;2023-07-31T13:39:12;4.28;;;2.30;;
78772;SDS011;68111;44.728;11.290;2023-07-31T13:41:39;5.05;;;2.78;;
78772;SDS011;68111;44.728;11.290;2023-07-31T13:44:06;4.40;;;2.40;;
78772;SDS011;68111;44.728;11.290;2023-07-31T13:46:33;5.78;;;2.40;;
78772;SDS011;68111;44.728;11.290;2023-07-31T13:48:59;4.18;;;2.50;;
78772;SDS011;68111;44.728;11.290;2023-07-31T13:51:27;5.75;;;2.42;;
78772;SDS011;68111;44.728;11.290;2023-07-31T13:53:54;4.72;;;2.60;;
78772;SDS011;68111;44.728;11.290;2023-07-31T13:56:21;3.83;;;2.53;;
78772;SDS011;68111;44.728;11.290;2023-07-31T13:58:48;5.35;;;2.33;;
78772;SDS011;68111;44.728;11.290;2023-07-31T14:01:15;3.97;;;2.30;;
78772;SDS011;68111;44.728;11.290;2023-07-31T14:03:41;6.65;;;2.60;;
78772;SDS011;68111;44.728;11.290;2023-07-31T14:08:39;4.13;;;2.15;;
78772;SDS011;68111;44.728;11.290;2023-07-31T14:11:05;4.88;;;2.28;;
78772;SDS011;68111;44.728;11.290;2023-07-31T14:13:32;2.80;;;2.20;;
78772;SDS011;68111;44.728;11.290;2023-07-31T14:15:59;5.70;;;2.45;;
78772;SDS011;68111;44.728;11.290;2023-07-31T14:18:25;4.63;;;2.22;;
78772;SDS011;68111;44.728;11.290;2023-07-31T14:20:52;5.55;;;2.47;;
78772;SDS011;68111;44.728;11.290;2023-07-31T14:23:19;3.17;;;2.40;;
78772;SDS011;68111;44.728;11.290;2023-07-31T14:25:46;3.17;;;2.25;;
78772;SDS011;68111;44.728;11.290;2023-07-31T14:28:13;5.20;;;2.20;;
78772;SDS011;68111;44.728;11.290;2023-07-31T14:30:40;3.38;;;2.28;;
78772;SDS011;68111;44.728;11.290;2023-07-31T14:33:07;3.40;;;2.30;;
78772;SDS011;68111;44.728;11.290;2023-07-31T14:35:34;5.43;;;2.80;;
78772;SDS011;68111;44.728;11.290;2023-07-31T14:38:01;5.22;;;2.60;;
78772;SDS011;68111;44.728;11.290;2023-07-31T14:40:28;4.95;;;2.25;;
78772;SDS011;68111;44.728;11.290;2023-07-31T14:42:55;5.25;;;2.35;;
78772;SDS011;68111;44.728;11.290;2023-07-31T14:45:22;3.60;;;2.20;;
78772;SDS011;68111;44.728;11.290;2023-07-31T14:47:48;5.18;;;2.45;;
78772;SDS011;68111;44.728;11.290;2023-07-31T14:50:16;4.20;;;2.38;;
78772;SDS011;68111;44.728;11.290;2023-07-31T14:55:13;4.72;;;2.40;;
78772;SDS011;68111;44.728;11.290;2023-07-31T14:57:40;5.53;;;2.50;;
78772;SDS011;68111;44.728;11.290;2023-07-31T15:00:07;4.72;;;2.30;;